Time;durP1;ratioP1;P1;durP2;ratioP2;P2;SDS_P1;SDS_P2;PMS_P1;PMS_P2;Temp;Humidity;BMP_temperature;BMP_pressure;BME280_temperature;BME280_humidity;BME280_pressure;Samples;Min_cycle;Max_cycle;Signal;HPM_P1;HPM_P2
2023/07/11 00:00:26;;;;;;;6.10;3.33;;;19.60;34.30;;;;;;5058381;28;20739;-72
2023/07/11 00:02:51;;;;;;;5.83;3.60;;;19.60;34.00;;;;;;5064172;28;20381;-71
2023/07/11 00:05:18;;;;;;;10.90;3.75;;;19.60;34.00;;;;;;5064200;28;20824;-72
2023/07/11 00:07:44;;;;;;;7.60;3.50;;;19.60;34.20;;;;;;5038643;28;20886;-72
2023/07/11 00:10:13;;;;;;;6.22;3.50;;;19.60;34.10;;;;;;5053305;28;20396;-72
2023/07/11 00:12:38;;;;;;;6.90;3.77;;;19.50;33.90;;;;;;5051654;28;20445;-71
2023/07/11 00:15:06;;;;;;;8.10;3.70;;;19.60;33.70;;;;;;5052099;28;20392;-72
2023/07/11 00:17:31;;;;;;;6.75;3.60;;;19.60;33.60;;;;;;5052014;28;20488;-72
2023/07/11 00:19:58;;;;;;;8.47;3.80;;;19.60;33.40;;;;;;5052094;28;20825;-72
2023/07/11 00:22:27;;;;;;;12.57;3.70;;;19.60;33.70;;;;;;5052529;28;20396;-72
2023/07/11 00:24:53;;;;;;;12.55;4.13;;;19.60;33.20;;;;;;5053603;28;20382;-71
2023/07/11 00:27:20;;;;;;;10.17;4.07;;;19.60;33.40;;;;;;5064858;28;20472;-72
2023/07/11 00:29:46;;;;;;;7.55;3.60;;;19.60;33.30;;;;;;5066874;28;20403;-70
2023/07/11 00:32:13;;;;;;;9.57;3.95;;;19.60;33.20;;;;;;5066114;28;20393;-70
2023/07/11 00:34:38;;;;;;;7.93;3.50;;;19.70;33.20;;;;;;5065952;28;20382;-72
2023/07/11 00:37:05;;;;;;;7.15;3.60;;;19.60;33.10;;;;;;5062769;28;20456;-73
2023/07/11 00:39:33;;;;;;;6.97;3.40;;;19.60;33.10;;;;;;5055110;28;20385;-72
2023/07/11 00:41:59;;;;;;;6.50;3.47;;;19.50;33.50;;;;;;5050784;28;20393;-71
2023/07/11 00:44:25;;;;;;;9.00;3.80;;;19.50;33.80;;;;;;5051399;28;20385;-71
2023/07/11 00:46:51;;;;;;;6.97;4.00;;;19.50;33.90;;;;;;5050830;28;20386;-71
2023/07/11 00:49:21;;;;;;;11.02;4.40;;;19.50;33.90;;;;;;5051224;28;20393;-72
2023/07/11 00:51:56;;;;;;;7.60;3.88;;;19.50;33.90;;;;;;5050976;28;20381;-72
2023/07/11 00:54:27;;;;;;;7.68;3.70;;;19.40;34.10;;;;;;5050999;28;20409;-72
2023/07/11 00:56:54;;;;;;;4.80;3.40;;;19.40;34.50;;;;;;5050473;28;20851;-72
2023/07/11 00:59:23;;;;;;;8.80;4.10;;;19.30;35.10;;;;;;5050922;28;20440;-71
2023/07/11 01:02:18;;;;;;;6.65;3.55;;;19.20;35.20;;;;;;5050403;28;20488;-72
2023/07/11 01:04:43;;;;;;;8.43;4.45;;;19.20;35.60;;;;;;5047754;28;20385;-72
2023/07/11 01:07:10;;;;;;;6.35;3.70;;;19.20;36.00;;;;;;5050500;28;20900;-72
2023/07/11 01:09:37;;;;;;;8.53;4.20;;;19.20;36.40;;;;;;5050452;28;20893;-72
2023/07/11 01:12:07;;;;;;;12.50;4.13;;;19.20;36.00;;;;;;5050469;28;20417;-72
2023/07/11 01:14:33;;;;;;;7.78;4.22;;;19.20;35.90;;;;;;5050383;28;20400;-72
2023/07/11 01:16:59;;;;;;;13.57;4.20;;;19.10;36.20;;;;;;5063019;23;20419;-71
2023/07/11 01:19:24;;;;;;;8.93;4.00;;;19.20;36.20;;;;;;5050406;28;20437;-71
2023/07/11 01:21:51;;;;;;;6.57;4.07;;;19.10;36.20;;;;;;5050116;28;20424;-71
2023/07/11 01:24:16;;;;;;;12.00;4.00;;;19.10;36.60;;;;;;5050640;28;20523;-74
2023/07/11 01:26:42;;;;;;;10.25;4.07;;;19.10;36.50;;;;;;5050514;28;20860;-73
2023/07/11 01:29:08;;;;;;;11.30;4.20;;;19.10;36.90;;;;;;5050512;28;20394;-72
2023/07/11 01:31:34;;;;;;;8.57;3.90;;;19.00;37.00;;;;;;5050121;28;20456;-73
2023/07/11 01:34:05;;;;;;;11.85;4.10;;;19.00;37.00;;;;;;5050191;28;20396;-72
2023/07/11 01:36:31;;;;;;;8.30;3.83;;;18.90;36.90;;;;;;5049971;28;20407;-72
2023/07/11 01:38:58;;;;;;;11.35;4.43;;;19.00;36.60;;;;;;5049805;28;20553;-72
2023/07/11 01:41:24;;;;;;;6.30;3.63;;;19.00;36.70;;;;;;5049699;28;20826;-72
2023/07/11 01:43:50;;;;;;;8.85;3.85;;;18.90;36.90;;;;;;5049875;28;20385;-72
2023/07/11 01:46:15;;;;;;;9.57;4.60;;;19.00;36.80;;;;;;5050831;28;20447;-73
2023/07/11 01:48:41;;;;;;;8.82;3.88;;;19.00;36.80;;;;;;5052710;28;20397;-73
2023/07/11 01:51:07;;;;;;;9.23;3.90;;;18.90;36.90;;;;;;5059254;28;20817;-71
2023/07/11 01:53:32;;;;;;;8.50;3.37;;;18.90;37.10;;;;;;5054319;28;20393;-71
2023/07/11 01:56:01;;;;;;;7.00;3.90;;;18.90;37.00;;;;;;5035473;28;20389;-71
2023/07/11 01:58:27;;;;;;;10.05;3.70;;;18.80;37.20;;;;;;5053671;28;20385;-72
2023/07/11 02:00:55;;;;;;;5.85;3.65;;;18.80;37.30;;;;;;5053680;28;20386;-71
2023/07/11 02:03:20;;;;;;;5.38;3.63;;;18.80;37.30;;;;;;5053613;28;20392;-71
2023/07/11 02:05:46;;;;;;;7.80;3.50;;;18.80;37.30;;;;;;5053512;28;20746;-71
2023/07/11 02:08:11;;;;;;;6.13;3.40;;;18.80;37.10;;;;;;5053510;28;20480;-73
2023/07/11 02:10:37;;;;;;;7.83;4.03;;;18.80;36.80;;;;;;5035526;28;20393;-71
2023/07/11 02:13:03;;;;;;;7.90;4.00;;;18.80;36.90;;;;;;5053557;28;20384;-71
2023/07/11 02:15:28;;;;;;;6.72;3.28;;;18.80;36.50;;;;;;5053342;28;20476;-71
2023/07/11 02:17:54;;;;;;;8.83;3.80;;;18.80;36.50;;;;;;5053006;28;20886;-71
2023/07/11 02:20:20;;;;;;;8.63;3.50;;;18.80;36.30;;;;;;5053244;28;20409;-71
2023/07/11 02:22:46;;;;;;;6.87;3.23;;;18.80;36.50;;;;;;5053219;28;20447;-72
2023/07/11 02:25:11;;;;;;;6.40;3.50;;;18.80;36.40;;;;;;5053604;28;20381;-72
2023/07/11 02:27:37;;;;;;;5.37;3.60;;;18.80;35.80;;;;;;5053314;28;20877;-72
2023/07/11 02:30:03;;;;;;;6.55;3.83;;;18.80;35.80;;;;;;5053167;28;20888;-72
2023/07/11 02:32:29;;;;;;;6.38;3.50;;;18.90;35.60;;;;;;5052795;28;20424;-72
2023/07/11 02:34:57;;;;;;;8.65;3.90;;;18.90;35.40;;;;;;5052360;28;20413;-72
2023/07/11 02:37:23;;;;;;;7.32;3.83;;;18.90;36.00;;;;;;5052769;28;20417;-71
2023/07/11 02:39:48;;;;;;;10.15;4.07;;;18.90;35.40;;;;;;5053183;28;20524;-72
2023/07/11 02:42:14;;;;;;;7.90;3.87;;;18.90;35.30;;;;;;5052686;28;20377;-73
2023/07/11 02:44:39;;;;;;;8.38;3.70;;;18.90;35.40;;;;;;5052791;28;20385;-71
2023/07/11 02:47:05;;;;;;;6.50;3.07;;;18.90;35.50;;;;;;5034834;28;20823;-71
2023/07/11 02:49:30;;;;;;;6.80;3.57;;;18.90;35.60;;;;;;5052707;28;20419;-71
2023/07/11 02:51:56;;;;;;;11.00;3.90;;;18.90;35.80;;;;;;5052465;28;20369;-71
2023/07/11 02:54:21;;;;;;;8.10;4.20;;;18.80;36.40;;;;;;5052592;28;20425;-71
2023/07/11 02:56:47;;;;;;;5.20;3.60;;;18.70;36.80;;;;;;5052310;28;20408;-71
2023/07/11 02:59:12;;;;;;;6.13;3.53;;;18.70;37.00;;;;;;5052548;28;20480;-71
2023/07/11 03:01:38;;;;;;;8.90;3.60;;;18.70;36.80;;;;;;5051582;28;20870;-71
2023/07/11 03:04:04;;;;;;;6.13;4.30;;;18.60;36.90;;;;;;5052239;28;20384;-72
2023/07/11 03:06:29;;;;;;;7.60;3.40;;;18.60;37.00;;;;;;5052570;28;20386;-71
2023/07/11 03:08:55;;;;;;;7.67;4.03;;;18.60;37.00;;;;;;5052233;28;20381;-72
2023/07/11 03:11:20;;;;;;;7.27;4.50;;;18.60;37.30;;;;;;5052489;28;20389;-72
2023/07/11 03:13:46;;;;;;;6.55;3.90;;;18.50;37.70;;;;;;5052479;28;20396;-72
2023/07/11 03:16:12;;;;;;;6.87;3.43;;;18.50;37.80;;;;;;5052378;28;20554;-71
2023/07/11 03:18:37;;;;;;;6.43;4.00;;;18.50;37.70;;;;;;5052203;28;20949;-71
2023/07/11 03:21:03;;;;;;;7.68;3.83;;;18.50;37.50;;;;;;5052146;28;20443;-72
2023/07/11 03:23:30;;;;;;;6.82;3.63;;;18.50;37.40;;;;;;5052327;28;20437;-71
2023/07/11 03:25:55;;;;;;;6.40;3.70;;;18.60;37.10;;;;;;5052310;28;20455;-71
2023/07/11 03:28:21;;;;;;;11.30;4.27;;;18.60;37.10;;;;;;5052224;28;20789;-72
2023/07/11 03:30:47;;;;;;;7.47;3.58;;;18.50;37.40;;;;;;5052117;28;20542;-72
2023/07/11 03:33:13;;;;;;;6.88;3.55;;;18.50;37.30;;;;;;5052279;28;20731;-71
2023/07/11 03:35:38;;;;;;;7.25;4.18;;;18.50;37.40;;;;;;5052397;28;20392;-72
2023/07/11 03:38:04;;;;;;;8.05;3.92;;;18.50;37.20;;;;;;5052085;28;20382;-72
2023/07/11 03:40:30;;;;;;;7.83;3.40;;;18.50;37.10;;;;;;5052025;28;20865;-72
2023/07/11 03:42:55;;;;;;;7.95;3.95;;;18.60;36.90;;;;;;5051782;28;20374;-72
2023/07/11 03:45:21;;;;;;;8.82;3.90;;;18.60;36.80;;;;;;5034032;28;20450;-72
2023/07/11 03:47:47;;;;;;;7.03;3.50;;;18.60;36.60;;;;;;5052005;28;20396;-72
2023/07/11 03:50:12;;;;;;;14.15;4.68;;;18.60;36.70;;;;;;5052081;28;20397;-72
2023/07/11 03:52:38;;;;;;;8.90;4.10;;;18.60;36.90;;;;;;5051789;28;20393;-72
2023/07/11 03:55:04;;;;;;;10.47;4.63;;;18.60;36.90;;;;;;5052176;28;20434;-72
2023/07/11 03:57:30;;;;;;;10.27;3.70;;;18.60;37.00;;;;;;5051774;28;20766;-72
2023/07/11 03:59:55;;;;;;;8.95;4.05;;;18.60;36.80;;;;;;5033658;28;20398;-72
2023/07/11 04:02:21;;;;;;;6.50;3.90;;;18.60;37.20;;;;;;5051322;28;20397;-72
2023/07/11 04:04:46;;;;;;;4.30;3.40;;;18.60;37.30;;;;;;5051531;28;20435;-72
2023/07/11 04:07:12;;;;;;;8.95;4.20;;;18.70;37.00;;;;;;5051255;28;20778;-72
2023/07/11 04:09:40;;;;;;;8.13;4.10;;;18.70;36.70;;;;;;5051162;28;20431;-72
2023/07/11 04:12:06;;;;;;;8.23;4.10;;;18.70;36.80;;;;;;5050972;28;20743;-72
2023/07/11 04:14:32;;;;;;;7.53;3.75;;;18.80;36.50;;;;;;5051025;28;20381;-73
2023/07/11 04:16:57;;;;;;;9.30;5.07;;;18.80;36.40;;;;;;5050854;28;20416;-72
2023/07/11 04:19:23;;;;;;;6.83;3.37;;;18.90;36.10;;;;;;5051065;28;20385;-72
2023/07/11 04:21:51;;;;;;;8.73;3.85;;;18.90;36.10;;;;;;5050850;28;20385;-73
2023/07/11 04:24:17;;;;;;;7.68;4.18;;;18.90;36.10;;;;;;5051353;28;20378;-72
2023/07/11 04:26:43;;;;;;;7.67;3.80;;;18.90;36.20;;;;;;5050379;28;20931;-72
2023/07/11 04:29:08;;;;;;;4.90;3.97;;;19.10;36.00;;;;;;5050919;28;20487;-73
2023/07/11 04:31:34;;;;;;;11.40;5.13;;;19.10;36.00;;;;;;5050707;28;20393;-71
2023/07/11 04:33:59;;;;;;;15.93;4.90;;;19.10;35.90;;;;;;5050800;28;20386;-72
2023/07/11 04:36:25;;;;;;;8.57;4.40;;;19.10;36.10;;;;;;5050802;28;20437;-72
2023/07/11 04:38:50;;;;;;;8.23;3.83;;;19.20;36.20;;;;;;5050327;28;20386;-72
2023/07/11 04:41:16;;;;;;;8.70;4.20;;;19.20;36.10;;;;;;5032420;28;20453;-72
2023/07/11 04:43:42;;;;;;;6.72;3.85;;;19.30;36.60;;;;;;5050467;28;20677;-72
2023/07/11 04:46:08;;;;;;;7.87;4.20;;;19.30;36.20;;;;;;5050289;28;20385;-72
2023/07/11 04:48:35;;;;;;;14.60;4.40;;;19.30;36.00;;;;;;5050455;28;20396;-72
2023/07/11 04:51:04;;;;;;;9.40;4.20;;;19.40;35.70;;;;;;5050237;28;20535;-72
2023/07/11 04:53:30;;;;;;;5.63;3.90;;;19.50;35.50;;;;;;5050747;28;20392;-72
2023/07/11 04:55:57;;;;;;;8.60;4.10;;;19.60;34.90;;;;;;5050334;28;20909;-72
2023/07/11 04:58:24;;;;;;;6.87;4.00;;;19.60;34.70;;;;;;5050182;28;20385;-72
2023/07/11 05:00:50;;;;;;;15.82;6.50;;;19.60;34.70;;;;;;5032251;28;20382;-72
2023/07/11 05:03:16;;;;;;;8.40;4.15;;;19.80;34.30;;;;;;5050077;28;20390;-72
2023/07/11 05:05:41;;;;;;;8.77;4.00;;;19.80;33.90;;;;;;5050176;28;20385;-72
2023/07/11 05:08:07;;;;;;;6.47;3.90;;;19.90;33.80;;;;;;5049732;28;20442;-72
2023/07/11 05:10:32;;;;;;;5.50;3.60;;;20.00;33.70;;;;;;5049999;28;20472;-72
2023/07/11 05:12:58;;;;;;;10.77;4.10;;;20.00;33.20;;;;;;5050068;28;20385;-72
2023/07/11 05:15:23;;;;;;;9.43;3.90;;;20.00;32.90;;;;;;5050166;28;20424;-73
2023/07/11 05:17:49;;;;;;;8.32;3.75;;;20.10;32.90;;;;;;5049937;28;20413;-72
2023/07/11 05:20:15;;;;;;;5.73;3.90;;;20.10;32.90;;;;;;5050092;28;20389;-72
2023/07/11 05:22:40;;;;;;;13.85;4.05;;;20.30;32.60;;;;;;5050246;28;20373;-72
2023/07/11 05:25:07;;;;;;;8.67;3.87;;;20.30;31.70;;;;;;5051976;28;20389;-73
2023/07/11 05:27:32;;;;;;;6.82;3.90;;;20.40;32.10;;;;;;5057060;28;20389;-72
2023/07/11 05:29:58;;;;;;;7.57;3.60;;;20.40;31.30;;;;;;5056569;28;20389;-72
2023/07/11 05:32:23;;;;;;;7.13;3.53;;;20.50;31.40;;;;;;5056656;28;20388;-73
2023/07/11 05:34:49;;;;;;;6.38;3.83;;;20.60;31.20;;;;;;5056573;28;20384;-73
2023/07/11 05:37:14;;;;;;;8.10;3.80;;;20.60;30.90;;;;;;5056338;28;20409;-73
2023/07/11 05:39:40;;;;;;;16.38;3.78;;;20.70;31.00;;;;;;5056469;28;20413;-72
2023/07/11 05:42:06;;;;;;;9.50;3.80;;;20.80;30.40;;;;;;5056514;28;20381;-71
2023/07/11 05:44:31;;;;;;;7.63;3.80;;;20.90;30.00;;;;;;5056881;28;20472;-72
2023/07/11 05:46:57;;;;;;;8.00;3.83;;;21.00;30.50;;;;;;5056706;28;20420;-72
2023/07/11 05:49:22;;;;;;;7.37;3.90;;;21.10;30.00;;;;;;5056321;28;20466;-72
2023/07/11 05:51:48;;;;;;;7.30;3.70;;;21.10;30.20;;;;;;5056350;28;20450;-71
2023/07/11 05:54:14;;;;;;;8.18;3.80;;;21.20;29.40;;;;;;5056808;28;20389;-72
2023/07/11 05:56:40;;;;;;;7.40;4.13;;;21.30;29.40;;;;;;5056334;28;20834;-72
2023/07/11 05:59:06;;;;;;;8.57;3.80;;;21.40;29.10;;;;;;5038498;28;20469;-73
2023/07/11 06:01:32;;;;;;;10.53;4.23;;;21.50;28.80;;;;;;5056249;28;20852;-73
2023/07/11 06:04:12;;;;;;;7.95;4.50;;;21.60;28.60;;;;;;5056587;28;20385;-73
2023/07/11 06:06:42;;;;;;;8.15;3.85;;;21.70;28.20;;;;;;5056543;28;20400;-71
2023/07/11 06:09:15;;;;;;;10.00;4.20;;;21.70;28.40;;;;;;5051519;28;20486;-72
2023/07/11 06:11:41;;;;;;;12.70;4.10;;;21.80;27.60;;;;;;5050953;28;20460;-72
2023/07/11 06:14:07;;;;;;;8.23;4.73;;;21.90;27.90;;;;;;5042058;28;20426;-72
2023/07/11 06:16:33;;;;;;;11.23;4.65;;;22.00;27.60;;;;;;5037668;28;20802;-72
2023/07/11 06:18:59;;;;;;;11.98;7.00;;;22.10;27.80;;;;;;5048332;28;20395;-73
2023/07/11 06:21:24;;;;;;;10.33;6.83;;;22.30;27.70;;;;;;5036845;28;20378;-74
2023/07/11 06:23:50;;;;;;;9.65;5.07;;;22.40;26.70;;;;;;5048102;28;20397;-73
2023/07/11 06:26:16;;;;;;;9.43;4.45;;;22.50;26.40;;;;;;5056377;28;20390;-73
2023/07/11 06:28:42;;;;;;;11.23;4.00;;;22.50;26.60;;;;;;5056224;28;20400;-74
2023/07/11 06:31:10;;;;;;;11.20;3.90;;;22.70;25.70;;;;;;5056280;28;20385;-73
2023/07/11 06:33:35;;;;;;;14.30;4.50;;;22.70;25.70;;;;;;5039618;28;20413;-72
2023/07/11 06:36:03;;;;;;;7.28;3.90;;;22.70;25.40;;;;;;5036540;28;20764;-72
2023/07/11 06:38:29;;;;;;;8.18;4.03;;;22.80;25.30;;;;;;5033569;28;20407;-73
2023/07/11 06:40:56;;;;;;;9.93;4.43;;;23.00;25.40;;;;;;5034819;28;20411;-74
2023/07/11 06:43:23;;;;;;;8.27;4.35;;;23.10;24.70;;;;;;5047723;28;20392;-72
2023/07/11 06:45:50;;;;;;;6.47;3.40;;;23.10;24.50;;;;;;5050556;28;20473;-73
2023/07/11 06:48:18;;;;;;;9.07;4.50;;;23.20;24.50;;;;;;5048004;28;20393;-74
2023/07/11 06:50:50;;;;;;;9.55;4.63;;;23.30;24.30;;;;;;5044879;28;20400;-72
2023/07/11 06:53:16;;;;;;;10.30;4.23;;;23.30;24.40;;;;;;5050546;28;20434;-71
2023/07/11 06:55:47;;;;;;;8.43;3.83;;;23.50;24.00;;;;;;5050345;28;20381;-72
2023/07/11 06:58:12;;;;;;;7.18;4.18;;;23.50;23.60;;;;;;5042351;28;20930;-72
2023/07/11 07:00:38;;;;;;;11.27;4.30;;;23.60;23.60;;;;;;5044504;28;20449;-72
2023/07/11 07:03:03;;;;;;;6.32;4.00;;;23.70;23.40;;;;;;5046265;28;20711;-71
2023/07/11 07:05:29;;;;;;;8.63;4.40;;;23.70;23.20;;;;;;5031679;28;20925;-72
2023/07/11 07:07:54;;;;;;;10.63;4.10;;;23.80;22.90;;;;;;5049826;28;20389;-72
2023/07/11 07:10:20;;;;;;;8.43;4.00;;;23.90;23.00;;;;;;5031181;28;20827;-72
2023/07/11 07:12:46;;;;;;;9.38;3.90;;;24.00;22.70;;;;;;5040825;28;20505;-72
2023/07/11 07:15:12;;;;;;;9.57;4.03;;;24.00;22.90;;;;;;5030068;28;20502;-73
2023/07/11 07:17:37;;;;;;;6.57;3.90;;;24.10;22.50;;;;;;5052602;22;20446;-73
2023/07/11 07:20:04;;;;;;;7.68;4.20;;;24.20;22.00;;;;;;5030926;28;20421;-76
2023/07/11 07:22:29;;;;;;;7.40;4.00;;;24.40;21.70;;;;;;5029694;28;20394;-74
2023/07/11 07:24:55;;;;;;;8.80;3.60;;;24.50;21.50;;;;;;5029927;28;20958;-74
2023/07/11 07:27:20;;;;;;;13.97;4.23;;;24.50;21.30;;;;;;5030249;28;20395;-75
2023/07/11 07:29:46;;;;;;;8.20;3.90;;;24.60;21.00;;;;;;5020654;28;20394;-75
2023/07/11 07:32:12;;;;;;;10.40;5.97;;;24.60;20.30;;;;;;5030213;28;20474;-76
2023/07/11 07:34:37;;;;;;;11.65;4.50;;;24.70;20.80;;;;;;5030174;28;20467;-75
2023/07/11 07:37:03;;;;;;;9.70;4.90;;;24.80;20.00;;;;;;5016346;28;20949;-73
2023/07/11 07:39:28;;;;;;;8.57;4.00;;;24.90;19.80;;;;;;5039312;28;20405;-71
2023/07/11 07:41:54;;;;;;;6.17;3.60;;;25.00;19.80;;;;;;5021893;28;20970;-72
2023/07/11 07:44:20;;;;;;;10.33;4.03;;;25.10;19.90;;;;;;5046878;28;20377;-72
2023/07/11 07:46:46;;;;;;;8.40;3.83;;;25.10;19.30;;;;;;5043650;28;20422;-72
2023/07/11 07:49:12;;;;;;;7.72;3.90;;;25.20;19.20;;;;;;5037031;28;20409;-72
2023/07/11 07:51:38;;;;;;;8.90;4.10;;;25.40;18.90;;;;;;5049495;28;20759;-72
2023/07/11 07:54:03;;;;;;;7.30;3.67;;;25.50;18.80;;;;;;5032008;28;20401;-73
2023/07/11 07:56:30;;;;;;;10.73;4.20;;;25.60;18.30;;;;;;5049970;28;20409;-72
2023/07/11 07:58:55;;;;;;;7.35;4.10;;;25.70;18.10;;;;;;5045868;28;20401;-73
2023/07/11 08:01:21;;;;;;;12.37;4.13;;;25.90;18.00;;;;;;5047648;28;20908;-74
2023/07/11 08:03:47;;;;;;;9.63;3.90;;;26.00;17.90;;;;;;5043070;28;20449;-72
2023/07/11 08:06:14;;;;;;;7.53;3.83;;;26.00;18.10;;;;;;5015347;28;20424;-75
2023/07/11 08:08:40;;;;;;;5.77;3.50;;;26.00;18.10;;;;;;5049061;28;20394;-74
2023/07/11 08:11:07;;;;;;;7.85;4.00;;;26.00;17.90;;;;;;5039226;28;20412;-72
2023/07/11 08:13:34;;;;;;;9.25;3.97;;;26.10;17.80;;;;;;5049400;28;20405;-72
2023/07/11 08:16:01;;;;;;;7.90;3.78;;;26.10;17.00;;;;;;5049691;28;20401;-73
2023/07/11 08:18:30;;;;;;;5.90;3.20;;;26.20;16.80;;;;;;5038523;28;20401;-74
2023/07/11 08:20:56;;;;;;;9.00;4.30;;;26.40;16.50;;;;;;5050037;28;20829;-74
2023/07/11 08:23:22;;;;;;;7.28;3.80;;;26.60;16.40;;;;;;5048691;28;20385;-73
2023/07/11 08:25:55;;;;;;;9.52;3.90;;;26.70;16.00;;;;;;5041727;28;20387;-73
2023/07/11 08:28:21;;;;;;;7.07;3.50;;;26.80;16.10;;;;;;5030837;28;20403;-73
2023/07/11 08:30:47;;;;;;;7.72;3.95;;;26.90;15.60;;;;;;5030295;28;20394;-74
2023/07/11 08:33:14;;;;;;;7.47;3.50;;;27.20;15.60;;;;;;5035096;28;20405;-74
2023/07/11 08:35:40;;;;;;;11.20;4.10;;;27.30;15.70;;;;;;5054325;28;20519;-73
2023/07/11 08:38:11;;;;;;;10.60;3.53;;;27.40;15.30;;;;;;5035230;28;20415;-73
2023/07/11 08:40:43;;;;;;;8.00;3.80;;;27.40;15.40;;;;;;5047164;28;20397;-73
2023/07/11 08:43:25;;;;;;;9.45;3.60;;;27.40;15.10;;;;;;5029778;28;20535;-73
2023/07/11 08:46:14;;;;;;;13.70;4.35;;;27.60;15.20;;;;;;5050247;28;20536;-74
2023/07/11 08:48:50;;;;;;;6.55;3.53;;;27.80;13.90;;;;;;5049318;28;20401;-74
2023/07/11 08:51:32;;;;;;;10.20;3.95;;;27.90;13.80;;;;;;5049044;28;20491;-74
2023/07/11 08:54:04;;;;;;;6.70;3.50;;;27.90;13.60;;;;;;5051092;28;20932;-71
2023/07/11 08:56:43;;;;;;;7.82;3.92;;;27.90;13.50;;;;;;5050460;28;20388;-73
2023/07/11 08:59:16;;;;;;;6.00;3.25;;;28.00;13.70;;;;;;5040057;28;20947;-72
2023/07/11 09:01:52;;;;;;;16.90;3.67;;;27.90;12.60;;;;;;5044154;28;20889;-74
2023/07/11 09:04:21;;;;;;;10.13;3.80;;;27.90;12.60;;;;;;5050302;28;20453;-74
2023/07/11 09:06:55;;;;;;;11.13;3.70;;;28.00;13.40;;;;;;5050520;28;20381;-74
2023/07/11 09:09:20;;;;;;;6.53;3.60;;;28.10;12.80;;;;;;5050564;28;20469;-73
2023/07/11 09:11:48;;;;;;;6.00;3.20;;;28.10;12.20;;;;;;5050170;28;20473;-74
2023/07/11 09:14:29;;;;;;;9.53;3.30;;;28.10;11.90;;;;;;5050603;28;20385;-73
2023/07/11 09:17:16;;;;;;;10.82;3.22;;;28.10;12.50;;;;;;5050249;28;20404;-73
2023/07/11 09:20:13;;;;;;;10.07;3.42;;;28.20;11.80;;;;;;5032283;28;20916;-73
2023/07/11 09:23:08;;;;;;;7.38;3.85;;;28.40;11.40;;;;;;5032108;28;20873;-72
2023/07/11 09:25:41;;;;;;;10.77;3.30;;;28.60;10.30;;;;;;5050195;28;20392;-73
2023/07/11 09:28:33;;;;;;;8.00;3.50;;;28.50;10.60;;;;;;5050096;28;20735;-72
2023/07/11 09:31:05;;;;;;;9.63;4.10;;;28.50;11.20;;;;;;5032625;28;20849;-72
2023/07/11 09:33:37;;;;;;;7.95;3.58;;;28.70;11.50;;;;;;5050412;28;20865;-72
2023/07/11 09:36:21;;;;;;;9.10;3.70;;;28.80;10.20;;;;;;5050000;28;20390;-73
2023/07/11 09:39:29;;;;;;;5.45;3.03;;;29.10;10.30;;;;;;5049858;28;20746;-73
2023/07/11 09:42:09;;;;;;;8.93;3.30;;;29.10;9.70;;;;;;5049626;28;20428;-73
2023/07/11 09:44:36;;;;;;;7.00;3.30;;;29.00;8.60;;;;;;5050014;28;20476;-73
2023/07/11 09:47:16;;;;;;;4.82;3.13;;;29.00;8.70;;;;;;5049523;28;20385;-73
2023/07/11 09:49:44;;;;;;;8.77;3.08;;;28.90;9.00;;;;;;5050133;28;20792;-74
2023/07/11 09:52:19;;;;;;;7.95;2.80;;;29.00;8.10;;;;;;5050094;28;20381;-73
2023/07/11 09:54:46;;;;;;;5.80;2.60;;;29.00;8.20;;;;;;5049811;28;20381;-74
2023/07/11 09:57:12;;;;;;;4.30;2.50;;;29.30;7.30;;;;;;5049562;28;20421;-73
2023/07/11 09:59:42;;;;;;;12.65;3.50;;;29.50;6.30;;;;;;5049835;28;20385;-73
2023/07/11 10:02:15;;;;;;;6.57;2.85;;;29.50;7.80;;;;;;5049639;28;20466;-72
2023/07/11 10:04:41;;;;;;;4.63;3.40;;;29.50;8.50;;;;;;5049604;28;20916;-73
2023/07/11 10:07:15;;;;;;;7.60;2.75;;;29.70;7.80;;;;;;5049561;28;20453;-74
2023/07/11 10:09:46;;;;;;;7.18;2.90;;;29.70;5.70;;;;;;5049607;28;20750;-73
2023/07/11 10:12:19;;;;;;;6.50;2.90;;;29.60;6.50;;;;;;5051740;28;20399;-73
2023/07/11 10:14:47;;;;;;;7.10;2.70;;;29.50;6.80;;;;;;5053238;28;20381;-73
2023/07/11 10:17:20;;;;;;;7.88;3.28;;;29.40;7.20;;;;;;5053233;28;20439;-74
2023/07/11 10:19:57;;;;;;;7.85;3.30;;;29.40;7.60;;;;;;5053712;28;20774;-74
2023/07/11 10:22:26;;;;;;;7.80;3.40;;;29.20;8.20;;;;;;5035240;28;20397;-73
2023/07/11 10:24:59;;;;;;;7.55;3.50;;;29.20;8.40;;;;;;5053214;28;20476;-73
2023/07/11 10:27:30;;;;;;;10.77;3.75;;;29.30;8.90;;;;;;5053462;28;20396;-73
2023/07/11 10:29:59;;;;;;;11.60;3.80;;;29.60;8.50;;;;;;5035805;28;20401;-73
2023/07/11 10:32:46;;;;;;;6.65;3.42;;;29.60;8.30;;;;;;5054335;28;20389;-74
2023/07/11 10:35:17;;;;;;;7.75;3.20;;;29.60;9.10;;;;;;5053881;28;20746;-72
2023/07/11 10:37:48;;;;;;;9.73;3.42;;;29.80;8.00;;;;;;5053572;28;20393;-73
2023/07/11 10:40:27;;;;;;;7.47;3.22;;;29.80;8.60;;;;;;5053583;28;20385;-72
2023/07/11 10:43:17;;;;;;;8.80;3.35;;;29.90;7.90;;;;;;5053605;28;20409;-73
2023/07/11 10:45:46;;;;;;;6.57;3.55;;;29.90;8.20;;;;;;5035710;28;20393;-74
2023/07/11 10:48:32;;;;;;;7.78;3.25;;;29.90;8.00;;;;;;5053782;28;20409;-74
2023/07/11 10:51:04;;;;;;;11.05;3.40;;;30.00;8.60;;;;;;5053114;28;20388;-73
2023/07/11 10:53:38;;;;;;;10.55;3.40;;;30.20;8.40;;;;;;5053313;28;20495;-73
2023/07/11 10:56:12;;;;;;;6.03;3.40;;;30.50;7.30;;;;;;5053112;28;20520;-72
2023/07/11 10:58:38;;;;;;;7.22;3.40;;;30.60;7.00;;;;;;5053181;28;20388;-73
2023/07/11 11:01:29;;;;;;;5.82;3.40;;;30.60;5.60;;;;;;5052928;28;20381;-74
2023/07/11 11:04:07;;;;;;;6.40;2.92;;;30.80;5.70;;;;;;5052996;28;20388;-73
2023/07/11 11:07:06;;;;;;;8.80;3.90;;;31.00;6.30;;;;;;5052679;28;20420;-73
2023/07/11 11:09:43;;;;;;;9.13;4.53;;;31.00;5.80;;;;;;5034458;28;20442;-74
2023/07/11 11:12:28;;;;;;;10.13;5.57;;;30.90;5.20;;;;;;5052111;28;20400;-73
2023/07/11 11:15:19;;;;;;;9.27;4.30;;;30.90;4.50;;;;;;5052359;28;20386;-73
2023/07/11 11:18:39;;;;;;;8.68;3.80;;;30.80;4.40;;;;;;5054797;28;20413;-73
2023/07/11 11:21:40;;;;;;;8.73;3.90;;;30.80;4.80;;;;;;4973537;28;20729;-73
2023/07/11 11:24:27;;;;;;;8.80;3.80;;;30.70;5.60;;;;;;5039203;28;20801;-73
2023/07/11 11:27:20;;;;;;;14.95;3.50;;;30.50;5.60;;;;;;5052423;28;20396;-73
2023/07/11 11:30:14;;;;;;;8.75;3.63;;;30.60;5.90;;;;;;5052526;28;20888;-74
2023/07/11 11:32:46;;;;;;;8.70;3.90;;;30.80;6.10;;;;;;5052290;28;20469;-75
2023/07/11 11:35:37;;;;;;;7.93;4.17;;;30.70;4.60;;;;;;5052661;28;20875;-73
2023/07/11 11:38:32;;;;;;;4.40;3.20;;;30.60;5.20;;;;;;5052325;28;20420;-73
2023/07/11 11:41:04;;;;;;;8.63;3.80;;;30.60;4.90;;;;;;5051862;28;20464;-74
2023/07/11 11:43:30;;;;;;;5.13;3.35;;;30.70;5.40;;;;;;5052172;28;20464;-72
2023/07/11 11:46:00;;;;;;;8.27;3.30;;;31.00;5.40;;;;;;5051754;28;20476;-71
2023/07/11 11:48:31;;;;;;;5.15;3.20;;;31.00;4.70;;;;;;5052330;28;20830;-72
2023/07/11 11:50:59;;;;;;;10.43;3.50;;;31.10;4.40;;;;;;5051976;28;20386;-74
2023/07/11 11:53:34;;;;;;;8.20;3.78;;;31.10;4.90;;;;;;5051743;28;20381;-73
2023/07/11 11:56:02;;;;;;;10.05;3.80;;;31.30;5.10;;;;;;5033481;28;20758;-74
2023/07/11 11:58:30;;;;;;;10.73;4.60;;;31.40;4.30;;;;;;5051522;28;20472;-72
2023/07/11 12:00:57;;;;;;;8.48;3.70;;;31.50;4.70;;;;;;5051325;28;20391;-73
2023/07/11 12:03:32;;;;;;;8.68;3.30;;;31.50;4.30;;;;;;5051648;28;20384;-73
2023/07/11 12:06:03;;;;;;;5.47;3.00;;;31.60;4.00;;;;;;5033401;28;20484;-72
2023/07/11 12:08:38;;;;;;;6.38;3.50;;;31.70;3.80;;;;;;5033466;28;20459;-73
2023/07/11 12:11:06;;;;;;;8.02;4.05;;;31.50;4.10;;;;;;5051125;28;20475;-73
2023/07/11 12:13:34;;;;;;;7.20;3.08;;;31.40;3.90;;;;;;5033511;28;20389;-73
2023/07/11 12:16:25;;;;;;;7.35;3.35;;;31.20;4.10;;;;;;5051343;28;20388;-73
2023/07/11 12:18:55;;;;;;;8.88;3.33;;;31.10;5.30;;;;;;5051001;28;20404;-73
2023/07/11 12:21:39;;;;;;;5.75;3.45;;;31.10;5.10;;;;;;5051542;28;20384;-72
2023/07/11 12:24:34;;;;;;;6.63;3.80;;;31.00;5.30;;;;;;5059467;28;20385;-74
2023/07/11 12:27:18;;;;;;;8.32;3.95;;;31.00;5.00;;;;;;5067699;28;20392;-74
2023/07/11 12:29:47;;;;;;;5.88;3.65;;;31.00;5.10;;;;;;5064350;28;20953;-72
2023/07/11 12:32:30;;;;;;;8.93;3.30;;;31.00;5.10;;;;;;5055233;28;20393;-72
2023/07/11 12:35:20;;;;;;;7.63;3.92;;;31.20;5.00;;;;;;5051253;28;20892;-72
2023/07/11 12:38:01;;;;;;;5.90;3.63;;;31.30;4.90;;;;;;5051079;28;20476;-74
2023/07/11 12:40:51;;;;;;;6.70;3.70;;;31.40;4.80;;;;;;5051481;28;20400;-73
2023/07/11 12:43:18;;;;;;;6.88;3.50;;;31.40;4.40;;;;;;5051045;28;20535;-73
2023/07/11 12:45:54;;;;;;;6.47;3.53;;;31.40;4.80;;;;;;5050724;28;20377;-72
2023/07/11 12:48:31;;;;;;;5.60;3.75;;;31.50;4.60;;;;;;5051105;28;20824;-73
2023/07/11 12:51:02;;;;;;;4.30;3.60;;;31.60;4.30;;;;;;5050541;28;20456;-71
2023/07/11 12:53:30;;;;;;;7.18;3.80;;;31.60;4.20;;;;;;5050816;28;20730;-73
2023/07/11 12:55:56;;;;;;;8.65;4.03;;;31.50;4.20;;;;;;5050422;28;20387;-71
2023/07/11 12:58:26;;;;;;;9.50;4.00;;;31.50;4.70;;;;;;5050586;28;20488;-73
2023/07/11 13:00:57;;;;;;;7.43;4.00;;;31.70;5.30;;;;;;5050991;28;20483;-73